Terminal Aerodrome Forecast
Issued by NWS

Home | Current Version | Previous Version | Text Only | Print | Product List | Glossary On
Versions: 1 2 3 4 5 6 7 8 9 10 11 12 13 14 15 16 17 18 19 20 21 22 23 24 25 26 27 28 29 30 31 32 33 34 35
000
FTUS44 KOUN 301730
TAFCSM
TAF
KCSM 301730Z 3018/3118 18012G16KT P6SM VCSH SCT009 OVC025
      TEMPO 3018/3019 BKN005
     FM302100 04014G20KT P6SM SCT009 BKN035
      TEMPO 3022/3102 4SM -TSRA OVC025CB
     FM310600 01014KT P6SM BKN025=

USA.gov is the U.S. government's official web portal to all federal, state and local government web resources and services.